sensor_id;sensor_type;location;lat;lon;timestamp;pressure;altitude;pressure_sealevel;temperature
14784;BMP180;7483;50.498;12.138;2022-10-31T00:01:36;97403.00;;;10.60
14784;BMP180;7483;50.498;12.138;2022-10-31T00:04:05;97428.00;;;10.40
14784;BMP180;7483;50.498;12.138;2022-10-31T00:06:35;97438.00;;;10.40
14784;BMP180;7483;50.498;12.138;2022-10-31T00:09:04;97432.00;;;10.40
14784;BMP180;7483;50.498;12.138;2022-10-31T00:11:32;97442.00;;;10.40
14784;BMP180;7483;50.498;12.138;2022-10-31T00:14:01;97431.00;;;10.50
14784;BMP180;7483;50.498;12.138;2022-10-31T00:16:30;97434.00;;;10.60
14784;BMP180;7483;50.498;12.138;2022-10-31T00:19:01;97447.00;;;10.60
14784;BMP180;7483;50.498;12.138;2022-10-31T00:21:31;97440.00;;;10.60
14784;BMP180;7483;50.498;12.138;2022-10-31T00:24:01;97441.00;;;10.60
14784;BMP180;7483;50.498;12.138;2022-10-31T00:26:30;97434.00;;;10.50
14784;BMP180;7483;50.498;12.138;2022-10-31T00:28:59;97428.00;;;10.30
14784;BMP180;7483;50.498;12.138;2022-10-31T00:31:28;97443.00;;;10.20
14784;BMP180;7483;50.498;12.138;2022-10-31T00:33:57;97437.00;;;10.30
14784;BMP180;7483;50.498;12.138;2022-10-31T00:36:26;97448.00;;;10.40
14784;BMP180;7483;50.498;12.138;2022-10-31T00:38:54;97452.00;;;10.40
14784;BMP180;7483;50.498;12.138;2022-10-31T00:41:24;97454.00;;;10.40
14784;BMP180;7483;50.498;12.138;2022-10-31T00:43:53;97450.00;;;10.30
14784;BMP180;7483;50.498;12.138;2022-10-31T00:46:21;97454.00;;;10.20
14784;BMP180;7483;50.498;12.138;2022-10-31T00:48:50;97448.00;;;10.30
14784;BMP180;7483;50.498;12.138;2022-10-31T00:51:18;97458.00;;;10.30
14784;BMP180;7483;50.498;12.138;2022-10-31T00:53:46;97459.00;;;10.40
14784;BMP180;7483;50.498;12.138;2022-10-31T00:56:14;97465.00;;;10.60
14784;BMP180;7483;50.498;12.138;2022-10-31T00:58:44;97464.00;;;10.50
14784;BMP180;7483;50.498;12.138;2022-10-31T01:01:12;97461.00;;;10.50
14784;BMP180;7483;50.498;12.138;2022-10-31T01:03:40;97462.00;;;10.50
14784;BMP180;7483;50.498;12.138;2022-10-31T01:06:13;97459.00;;;10.50
14784;BMP180;7483;50.498;12.138;2022-10-31T01:08:41;97466.00;;;10.60
14784;BMP180;7483;50.498;12.138;2022-10-31T01:11:15;97460.00;;;10.60
14784;BMP180;7483;50.498;12.138;2022-10-31T01:13:45;97475.00;;;10.70
14784;BMP180;7483;50.498;12.138;2022-10-31T01:16:17;97466.00;;;10.50
14784;BMP180;7483;50.498;12.138;2022-10-31T01:18:47;97457.00;;;10.40
14784;BMP180;7483;50.498;12.138;2022-10-31T01:21:18;97404.00;;;10.60
14784;BMP180;7483;50.498;12.138;2022-10-31T01:23:48;97459.00;;;10.40
14784;BMP180;7483;50.498;12.138;2022-10-31T01:26:20;97451.00;;;10.20
14784;BMP180;7483;50.498;12.138;2022-10-31T01:28:51;97471.00;;;10.00
14784;BMP180;7483;50.498;12.138;2022-10-31T01:31:22;97440.00;;;10.10
14784;BMP180;7483;50.498;12.138;2022-10-31T01:33:52;97461.00;;;10.20
14784;BMP180;7483;50.498;12.138;2022-10-31T01:36:22;97462.00;;;10.40
14784;BMP180;7483;50.498;12.138;2022-10-31T01:38:53;97476.00;;;10.40
14784;BMP180;7483;50.498;12.138;2022-10-31T01:41:25;97454.00;;;10.40
14784;BMP180;7483;50.498;12.138;2022-10-31T01:43:57;97484.00;;;10.50
14784;BMP180;7483;50.498;12.138;2022-10-31T01:46:31;97454.00;;;10.40
14784;BMP180;7483;50.498;12.138;2022-10-31T01:49:03;97474.00;;;10.10
14784;BMP180;7483;50.498;12.138;2022-10-31T01:51:36;97441.00;;;10.30
14784;BMP180;7483;50.498;12.138;2022-10-31T01:54:09;97406.00;;;10.20
14784;BMP180;7483;50.498;12.138;2022-10-31T01:56:46;97465.00;;;10.00
14784;BMP180;7483;50.498;12.138;2022-10-31T01:59:20;97436.00;;;9.60
14784;BMP180;7483;50.498;12.138;2022-10-31T02:01:51;97451.00;;;9.70
14784;BMP180;7483;50.498;12.138;2022-10-31T02:04:23;97448.00;;;9.80
14784;BMP180;7483;50.498;12.138;2022-10-31T02:06:58;97442.00;;;9.80
14784;BMP180;7483;50.498;12.138;2022-10-31T02:09:30;97453.00;;;9.80
14784;BMP180;7483;50.498;12.138;2022-10-31T02:12:02;97453.00;;;9.90
14784;BMP180;7483;50.498;12.138;2022-10-31T02:14:33;97451.00;;;10.10
14784;BMP180;7483;50.498;12.138;2022-10-31T02:17:03;97452.00;;;10.10
14784;BMP180;7483;50.498;12.138;2022-10-31T02:19:41;97454.00;;;10.10
14784;BMP180;7483;50.498;12.138;2022-10-31T02:22:21;97450.00;;;10.00
14784;BMP180;7483;50.498;12.138;2022-10-31T02:25:13;97450.00;;;10.00
14784;BMP180;7483;50.498;12.138;2022-10-31T02:28:07;97447.00;;;10.10
14784;BMP180;7483;50.498;12.138;2022-10-31T02:31:05;97447.00;;;10.10
14784;BMP180;7483;50.498;12.138;2022-10-31T02:33:44;97437.00;;;10.00
14784;BMP180;7483;50.498;12.138;2022-10-31T02:36:24;97431.00;;;9.20
14784;BMP180;7483;50.498;12.138;2022-10-31T02:39:08;97443.00;;;9.90
14784;BMP180;7483;50.498;12.138;2022-10-31T02:41:49;97437.00;;;9.90
14784;BMP180;7483;50.498;12.138;2022-10-31T02:44:29;97449.00;;;10.00
14784;BMP180;7483;50.498;12.138;2022-10-31T02:47:05;97439.00;;;9.80
14784;BMP180;7483;50.498;12.138;2022-10-31T02:49:40;97432.00;;;9.80
14784;BMP180;7483;50.498;12.138;2022-10-31T02:52:18;97433.00;;;9.60
14784;BMP180;7483;50.498;12.138;2022-10-31T02:54:48;97435.00;;;9.60
14784;BMP180;7483;50.498;12.138;2022-10-31T02:57:20;97440.00;;;9.60
14784;BMP180;7483;50.498;12.138;2022-10-31T02:59:58;97463.00;;;9.70
14784;BMP180;7483;50.498;12.138;2022-10-31T03:02:46;97432.00;;;9.60
14784;BMP180;7483;50.498;12.138;2022-10-31T03:05:33;97436.00;;;9.50
14784;BMP180;7483;50.498;12.138;2022-10-31T03:08:12;97410.00;;;9.60
14784;BMP180;7483;50.498;12.138;2022-10-31T03:10:47;97444.00;;;9.60
14784;BMP180;7483;50.498;12.138;2022-10-31T03:13:26;97470.00;;;9.60
14784;BMP180;7483;50.498;12.138;2022-10-31T03:16:07;97388.00;;;9.50
14784;BMP180;7483;50.498;12.138;2022-10-31T03:18:43;97442.00;;;9.50
14784;BMP180;7483;50.498;12.138;2022-10-31T03:21:20;97445.00;;;9.40
14784;BMP180;7483;50.498;12.138;2022-10-31T03:23:53;97440.00;;;9.20
14784;BMP180;7483;50.498;12.138;2022-10-31T03:26:24;97454.00;;;9.10
14784;BMP180;7483;50.498;12.138;2022-10-31T03:28:57;97448.00;;;9.20
14784;BMP180;7483;50.498;12.138;2022-10-31T03:31:30;97454.00;;;9.20
14784;BMP180;7483;50.498;12.138;2022-10-31T03:34:02;97451.00;;;9.30
14784;BMP180;7483;50.498;12.138;2022-10-31T03:36:34;97447.00;;;9.20
14784;BMP180;7483;50.498;12.138;2022-10-31T03:39:09;97450.00;;;9.00
14784;BMP180;7483;50.498;12.138;2022-10-31T03:41:44;97444.00;;;8.90
14784;BMP180;7483;50.498;12.138;2022-10-31T03:44:17;97442.00;;;9.00
14784;BMP180;7483;50.498;12.138;2022-10-31T03:46:55;97423.00;;;8.90
14784;BMP180;7483;50.498;12.138;2022-10-31T03:49:25;97458.00;;;8.70
14784;BMP180;7483;50.498;12.138;2022-10-31T03:52:02;97426.00;;;8.70
14784;BMP180;7483;50.498;12.138;2022-10-31T03:54:41;97436.00;;;8.60
14784;BMP180;7483;50.498;12.138;2022-10-31T03:57:19;97448.00;;;8.70
14784;BMP180;7483;50.498;12.138;2022-10-31T03:59:55;97444.00;;;8.70
14784;BMP180;7483;50.498;12.138;2022-10-31T04:02:31;97445.00;;;8.90
14784;BMP180;7483;50.498;12.138;2022-10-31T04:05:03;97443.00;;;8.90
14784;BMP180;7483;50.498;12.138;2022-10-31T04:07:38;97452.00;;;9.10
14784;BMP180;7483;50.498;12.138;2022-10-31T04:10:12;97452.00;;;9.10
14784;BMP180;7483;50.498;12.138;2022-10-31T04:12:48;97438.00;;;9.00
14784;BMP180;7483;50.498;12.138;2022-10-31T04:15:26;97425.00;;;8.90
14784;BMP180;7483;50.498;12.138;2022-10-31T04:17:58;97434.00;;;8.90
14784;BMP180;7483;50.498;12.138;2022-10-31T04:20:36;97448.00;;;8.90
14784;BMP180;7483;50.498;12.138;2022-10-31T04:23:14;97459.00;;;9.00
14784;BMP180;7483;50.498;12.138;2022-10-31T04:25:44;97448.00;;;8.90
14784;BMP180;7483;50.498;12.138;2022-10-31T04:28:12;97440.00;;;9.00
14784;BMP180;7483;50.498;12.138;2022-10-31T04:30:42;97441.00;;;8.90
14784;BMP180;7483;50.498;12.138;2022-10-31T04:33:10;97441.00;;;8.80
14784;BMP180;7483;50.498;12.138;2022-10-31T04:35:40;97435.00;;;9.00
14784;BMP180;7483;50.498;12.138;2022-10-31T04:38:09;97459.00;;;9.10
14784;BMP180;7483;50.498;12.138;2022-10-31T04:40:38;97440.00;;;9.00
14784;BMP180;7483;50.498;12.138;2022-10-31T04:43:26;97440.00;;;9.00
14784;BMP180;7483;50.498;12.138;2022-10-31T04:45:55;97446.00;;;8.90
14784;BMP180;7483;50.498;12.138;2022-10-31T04:48:23;97455.00;;;8.80
14784;BMP180;7483;50.498;12.138;2022-10-31T04:50:57;97447.00;;;8.80
14784;BMP180;7483;50.498;12.138;2022-10-31T04:53:26;97439.00;;;8.70
14784;BMP180;7483;50.498;12.138;2022-10-31T04:56:24;97442.00;;;8.80
14784;BMP180;7483;50.498;12.138;2022-10-31T04:58:57;97445.00;;;8.80
14784;BMP180;7483;50.498;12.138;2022-10-31T05:01:28;97462.00;;;8.90
14784;BMP180;7483;50.498;12.138;2022-10-31T05:03:59;97462.00;;;8.90
14784;BMP180;7483;50.498;12.138;2022-10-31T05:06:29;97468.00;;;8.90
14784;BMP180;7483;50.498;12.138;2022-10-31T05:08:57;97464.00;;;8.70
14784;BMP180;7483;50.498;12.138;2022-10-31T05:11:26;97450.00;;;8.50
14784;BMP180;7483;50.498;12.138;2022-10-31T05:13:59;97455.00;;;8.50
14784;BMP180;7483;50.498;12.138;2022-10-31T05:16:56;97457.00;;;8.40
14784;BMP180;7483;50.498;12.138;2022-10-31T05:19:42;97449.00;;;8.30
14784;BMP180;7483;50.498;12.138;2022-10-31T05:22:30;97456.00;;;8.30
14784;BMP180;7483;50.498;12.138;2022-10-31T05:24:59;97452.00;;;8.40
14784;BMP180;7483;50.498;12.138;2022-10-31T05:27:28;97450.00;;;8.40
14784;BMP180;7483;50.498;12.138;2022-10-31T05:29:56;97450.00;;;8.40
14784;BMP180;7483;50.498;12.138;2022-10-31T05:32:29;97437.00;;;8.30
14784;BMP180;7483;50.498;12.138;2022-10-31T05:35:23;97454.00;;;8.30
14784;BMP180;7483;50.498;12.138;2022-10-31T05:38:10;97439.00;;;8.50
14784;BMP180;7483;50.498;12.138;2022-10-31T05:40:38;97448.00;;;8.40
14784;BMP180;7483;50.498;12.138;2022-10-31T05:43:06;97455.00;;;8.40
14784;BMP180;7483;50.498;12.138;2022-10-31T05:45:34;97455.00;;;8.40
14784;BMP180;7483;50.498;12.138;2022-10-31T05:48:08;97457.00;;;8.20
14784;BMP180;7483;50.498;12.138;2022-10-31T05:50:56;97456.00;;;8.20
14784;BMP180;7483;50.498;12.138;2022-10-31T05:53:26;97467.00;;;8.20
14784;BMP180;7483;50.498;12.138;2022-10-31T05:55:54;97452.00;;;8.20
14784;BMP180;7483;50.498;12.138;2022-10-31T05:58:22;97460.00;;;8.20
14784;BMP180;7483;50.498;12.138;2022-10-31T06:01:02;97459.00;;;8.10
14784;BMP180;7483;50.498;12.138;2022-10-31T06:03:30;97449.00;;;8.10
14784;BMP180;7483;50.498;12.138;2022-10-31T06:06:01;97475.00;;;8.20
14784;BMP180;7483;50.498;12.138;2022-10-31T06:08:36;97467.00;;;8.30
14784;BMP180;7483;50.498;12.138;2022-10-31T06:11:11;97474.00;;;8.20
14784;BMP180;7483;50.498;12.138;2022-10-31T06:13:57;97463.00;;;8.30
14784;BMP180;7483;50.498;12.138;2022-10-31T06:16:33;97469.00;;;8.30
14784;BMP180;7483;50.498;12.138;2022-10-31T06:19:21;97452.00;;;8.20
14784;BMP180;7483;50.498;12.138;2022-10-31T06:21:50;97463.00;;;8.10
14784;BMP180;7483;50.498;12.138;2022-10-31T06:24:20;97448.00;;;8.00
14784;BMP180;7483;50.498;12.138;2022-10-31T06:27:00;97457.00;;;7.90
14784;BMP180;7483;50.498;12.138;2022-10-31T06:29:28;97453.00;;;7.70
14784;BMP180;7483;50.498;12.138;2022-10-31T06:32:03;97446.00;;;7.70
14784;BMP180;7483;50.498;12.138;2022-10-31T06:34:40;97478.00;;;7.70
14784;BMP180;7483;50.498;12.138;2022-10-31T06:37:09;97472.00;;;7.80
14784;BMP180;7483;50.498;12.138;2022-10-31T06:39:42;97480.00;;;7.80
14784;BMP180;7483;50.498;12.138;2022-10-31T06:42:12;97482.00;;;7.90
14784;BMP180;7483;50.498;12.138;2022-10-31T06:44:43;97476.00;;;7.90
14784;BMP180;7483;50.498;12.138;2022-10-31T06:47:51;97482.00;;;8.00
14784;BMP180;7483;50.498;12.138;2022-10-31T06:50:58;97489.00;;;8.10
14784;BMP180;7483;50.498;12.138;2022-10-31T06:53:27;97490.00;;;8.10
14784;BMP180;7483;50.498;12.138;2022-10-31T06:55:59;97495.00;;;8.20
14784;BMP180;7483;50.498;12.138;2022-10-31T06:58:28;97488.00;;;8.30
14784;BMP180;7483;50.498;12.138;2022-10-31T07:01:01;97509.00;;;8.30
14784;BMP180;7483;50.498;12.138;2022-10-31T07:03:29;97494.00;;;8.30
14784;BMP180;7483;50.498;12.138;2022-10-31T07:05:58;97519.00;;;8.30
14784;BMP180;7483;50.498;12.138;2022-10-31T07:08:27;97524.00;;;8.40
14784;BMP180;7483;50.498;12.138;2022-10-31T07:10:58;97512.00;;;8.50
14784;BMP180;7483;50.498;12.138;2022-10-31T07:13:28;97487.00;;;8.40
14784;BMP180;7483;50.498;12.138;2022-10-31T07:16:05;97498.00;;;8.40
14784;BMP180;7483;50.498;12.138;2022-10-31T07:18:35;97530.00;;;8.50
14784;BMP180;7483;50.498;12.138;2022-10-31T07:21:05;97536.00;;;8.60
14784;BMP180;7483;50.498;12.138;2022-10-31T07:23:33;97552.00;;;8.60
14784;BMP180;7483;50.498;12.138;2022-10-31T07:26:38;97546.00;;;8.70
14784;BMP180;7483;50.498;12.138;2022-10-31T07:29:06;97548.00;;;8.70
14784;BMP180;7483;50.498;12.138;2022-10-31T07:31:35;97539.00;;;8.60
14784;BMP180;7483;50.498;12.138;2022-10-31T07:34:09;97553.00;;;8.50
14784;BMP180;7483;50.498;12.138;2022-10-31T07:37:12;97549.00;;;8.60
14784;BMP180;7483;50.498;12.138;2022-10-31T07:39:41;97549.00;;;8.60
14784;BMP180;7483;50.498;12.138;2022-10-31T07:42:10;97546.00;;;8.80
14784;BMP180;7483;50.498;12.138;2022-10-31T07:44:42;97531.00;;;8.90
14784;BMP180;7483;50.498;12.138;2022-10-31T07:47:29;97547.00;;;9.00
14784;BMP180;7483;50.498;12.138;2022-10-31T07:50:18;97549.00;;;9.10
14784;BMP180;7483;50.498;12.138;2022-10-31T07:53:07;97553.00;;;9.20
14784;BMP180;7483;50.498;12.138;2022-10-31T07:55:48;97557.00;;;9.20
14784;BMP180;7483;50.498;12.138;2022-10-31T07:58:19;97547.00;;;9.30
14784;BMP180;7483;50.498;12.138;2022-10-31T08:00:48;97552.00;;;9.40
14784;BMP180;7483;50.498;12.138;2022-10-31T08:03:28;97544.00;;;9.40
14784;BMP180;7483;50.498;12.138;2022-10-31T08:06:14;97547.00;;;9.50
14784;BMP180;7483;50.498;12.138;2022-10-31T08:09:10;97540.00;;;9.60
14784;BMP180;7483;50.498;12.138;2022-10-31T08:11:39;97554.00;;;9.70
14784;BMP180;7483;50.498;12.138;2022-10-31T08:14:09;97556.00;;;9.80
14784;BMP180;7483;50.498;12.138;2022-10-31T08:16:37;97571.00;;;9.80
14784;BMP180;7483;50.498;12.138;2022-10-31T08:19:06;97559.00;;;9.90
14784;BMP180;7483;50.498;12.138;2022-10-31T08:21:37;97551.00;;;9.90
14784;BMP180;7483;50.498;12.138;2022-10-31T08:24:08;97561.00;;;10.00
14784;BMP180;7483;50.498;12.138;2022-10-31T08:26:36;97558.00;;;10.10
14784;BMP180;7483;50.498;12.138;2022-10-31T08:29:09;97559.00;;;10.10
14784;BMP180;7483;50.498;12.138;2022-10-31T08:31:39;97549.00;;;10.20
14784;BMP180;7483;50.498;12.138;2022-10-31T08:34:27;97547.00;;;10.30
14784;BMP180;7483;50.498;12.138;2022-10-31T08:37:14;97558.00;;;10.40
14784;BMP180;7483;50.498;12.138;2022-10-31T08:39:48;97550.00;;;10.50
14784;BMP180;7483;50.498;12.138;2022-10-31T08:42:18;97556.00;;;10.60
14784;BMP180;7483;50.498;12.138;2022-10-31T08:44:47;97549.00;;;10.70
14784;BMP180;7483;50.498;12.138;2022-10-31T08:47:17;97546.00;;;10.80
14784;BMP180;7483;50.498;12.138;2022-10-31T08:49:47;97534.00;;;10.90
14784;BMP180;7483;50.498;12.138;2022-10-31T08:52:15;97558.00;;;11.00
14784;BMP180;7483;50.498;12.138;2022-10-31T08:54:46;97543.00;;;11.10
14784;BMP180;7483;50.498;12.138;2022-10-31T08:57:33;97548.00;;;11.20
14784;BMP180;7483;50.498;12.138;2022-10-31T09:00:04;97531.00;;;11.30
14784;BMP180;7483;50.498;12.138;2022-10-31T09:02:41;97524.00;;;11.40
14784;BMP180;7483;50.498;12.138;2022-10-31T09:05:09;97524.00;;;11.50
14784;BMP180;7483;50.498;12.138;2022-10-31T09:07:37;97545.00;;;11.60
14784;BMP180;7483;50.498;12.138;2022-10-31T09:10:06;97530.00;;;11.70
14784;BMP180;7483;50.498;12.138;2022-10-31T09:12:37;97524.00;;;11.80
14784;BMP180;7483;50.498;12.138;2022-10-31T09:15:26;97525.00;;;11.90
14784;BMP180;7483;50.498;12.138;2022-10-31T09:18:09;97520.00;;;12.10
14784;BMP180;7483;50.498;12.138;2022-10-31T09:20:46;97523.00;;;12.20
14784;BMP180;7483;50.498;12.138;2022-10-31T09:23:16;97535.00;;;12.30
14784;BMP180;7483;50.498;12.138;2022-10-31T09:25:45;97529.00;;;12.40
14784;BMP180;7483;50.498;12.138;2022-10-31T09:28:33;97512.00;;;12.50
14784;BMP180;7483;50.498;12.138;2022-10-31T09:31:11;97534.00;;;12.70
14784;BMP180;7483;50.498;12.138;2022-10-31T09:33:58;97525.00;;;12.80
14784;BMP180;7483;50.498;12.138;2022-10-31T09:36:37;97537.00;;;12.90
14784;BMP180;7483;50.498;12.138;2022-10-31T09:39:12;97527.00;;;13.00
14784;BMP180;7483;50.498;12.138;2022-10-31T09:42:03;97536.00;;;13.20
14784;BMP180;7483;50.498;12.138;2022-10-31T09:44:49;97532.00;;;13.40
14784;BMP180;7483;50.498;12.138;2022-10-31T09:47:48;97534.00;;;13.60
14784;BMP180;7483;50.498;12.138;2022-10-31T09:50:41;97529.00;;;13.70
14784;BMP180;7483;50.498;12.138;2022-10-31T09:53:37;97533.00;;;13.80
14784;BMP180;7483;50.498;12.138;2022-10-31T09:56:14;97526.00;;;14.00
14784;BMP180;7483;50.498;12.138;2022-10-31T09:58:48;97539.00;;;14.10
14784;BMP180;7483;50.498;12.138;2022-10-31T10:01:34;97533.00;;;14.30
14784;BMP180;7483;50.498;12.138;2022-10-31T10:04:37;97533.00;;;14.50
14784;BMP180;7483;50.498;12.138;2022-10-31T10:07:26;97522.00;;;14.60
14784;BMP180;7483;50.498;12.138;2022-10-31T10:10:31;97527.00;;;14.70
14784;BMP180;7483;50.498;12.138;2022-10-31T10:16:57;97533.00;;;15.00
14784;BMP180;7483;50.498;12.138;2022-10-31T10:19:50;97725.00;;;15.10
14784;BMP180;7483;50.498;12.138;2022-10-31T10:22:31;97724.00;;;15.20
14784;BMP180;7483;50.498;12.138;2022-10-31T10:25:16;97721.00;;;15.20
14784;BMP180;7483;50.498;12.138;2022-10-31T10:28:00;97720.00;;;15.30
14784;BMP180;7483;50.498;12.138;2022-10-31T10:30:39;97720.00;;;15.40
14784;BMP180;7483;50.498;12.138;2022-10-31T10:33:14;97703.00;;;15.40
14784;BMP180;7483;50.498;12.138;2022-10-31T10:36:21;97694.00;;;15.50
14784;BMP180;7483;50.498;12.138;2022-10-31T10:39:52;97721.00;;;15.70
14784;BMP180;7483;50.498;12.138;2022-10-31T10:43:20;97746.00;;;15.80
14784;BMP180;7483;50.498;12.138;2022-10-31T10:46:04;97745.00;;;15.80
14784;BMP180;7483;50.498;12.138;2022-10-31T10:49:02;97736.00;;;15.90
14784;BMP180;7483;50.498;12.138;2022-10-31T10:51:41;97740.00;;;16.00
14784;BMP180;7483;50.498;12.138;2022-10-31T10:54:59;97730.00;;;16.10
14784;BMP180;7483;50.498;12.138;2022-10-31T10:57:54;97728.00;;;16.20
14784;BMP180;7483;50.498;12.138;2022-10-31T11:00:27;97666.00;;;16.40
14784;BMP180;7483;50.498;12.138;2022-10-31T11:02:56;97722.00;;;16.50
14784;BMP180;7483;50.498;12.138;2022-10-31T11:05:33;97489.00;;;16.60
14784;BMP180;7483;50.498;12.138;2022-10-31T11:08:04;97536.00;;;16.70
14784;BMP180;7483;50.498;12.138;2022-10-31T11:10:33;97544.00;;;16.80
14784;BMP180;7483;50.498;12.138;2022-10-31T11:13:20;97529.00;;;16.80
14784;BMP180;7483;50.498;12.138;2022-10-31T11:15:57;97702.00;;;16.90
14784;BMP180;7483;50.498;12.138;2022-10-31T11:18:29;97704.00;;;17.00
14784;BMP180;7483;50.498;12.138;2022-10-31T11:21:01;97707.00;;;17.10
14784;BMP180;7483;50.498;12.138;2022-10-31T11:23:39;97495.00;;;17.10
14784;BMP180;7483;50.498;12.138;2022-10-31T11:26:23;97491.00;;;17.20
14784;BMP180;7483;50.498;12.138;2022-10-31T11:28:57;97488.00;;;17.30
14784;BMP180;7483;50.498;12.138;2022-10-31T11:31:26;97503.00;;;17.40
14784;BMP180;7483;50.498;12.138;2022-10-31T11:34:00;97503.00;;;17.70
14784;BMP180;7483;50.498;12.138;2022-10-31T11:36:35;97505.00;;;18.30
14784;BMP180;7483;50.498;12.138;2022-10-31T11:39:14;97502.00;;;18.80
14784;BMP180;7483;50.498;12.138;2022-10-31T11:41:44;97500.00;;;19.50
14784;BMP180;7483;50.498;12.138;2022-10-31T11:44:17;97501.00;;;20.40
14784;BMP180;7483;50.498;12.138;2022-10-31T11:46:49;97495.00;;;21.00
14784;BMP180;7483;50.498;12.138;2022-10-31T11:49:29;97497.00;;;21.60
14784;BMP180;7483;50.498;12.138;2022-10-31T11:52:02;97503.00;;;22.20
14784;BMP180;7483;50.498;12.138;2022-10-31T11:54:45;97490.00;;;22.70
14784;BMP180;7483;50.498;12.138;2022-10-31T11:57:27;97487.00;;;23.20
14784;BMP180;7483;50.498;12.138;2022-10-31T11:59:58;97486.00;;;23.50
14784;BMP180;7483;50.498;12.138;2022-10-31T12:02:27;97490.00;;;23.50
14784;BMP180;7483;50.498;12.138;2022-10-31T12:05:07;97472.00;;;23.70
14784;BMP180;7483;50.498;12.138;2022-10-31T12:07:36;97483.00;;;24.00
14784;BMP180;7483;50.498;12.138;2022-10-31T12:10:10;97471.00;;;24.40
14784;BMP180;7483;50.498;12.138;2022-10-31T12:12:56;97459.00;;;24.70
14784;BMP180;7483;50.498;12.138;2022-10-31T12:15:33;97481.00;;;25.10
14784;BMP180;7483;50.498;12.138;2022-10-31T12:18:30;97467.00;;;25.30
14784;BMP180;7483;50.498;12.138;2022-10-31T12:21:23;97469.00;;;25.40
14784;BMP180;7483;50.498;12.138;2022-10-31T12:24:09;97457.00;;;25.20
14784;BMP180;7483;50.498;12.138;2022-10-31T12:27:01;97646.00;;;25.60
14784;BMP180;7483;50.498;12.138;2022-10-31T12:29:56;97645.00;;;25.90
14784;BMP180;7483;50.498;12.138;2022-10-31T12:32:41;97641.00;;;26.10
14784;BMP180;7483;50.498;12.138;2022-10-31T12:35:39;97635.00;;;25.20
14784;BMP180;7483;50.498;12.138;2022-10-31T12:38:42;97629.00;;;25.30
14784;BMP180;7483;50.498;12.138;2022-10-31T12:41:38;97647.00;;;25.50
14784;BMP180;7483;50.498;12.138;2022-10-31T12:44:52;97637.00;;;25.30
14784;BMP180;7483;50.498;12.138;2022-10-31T12:47:58;97622.00;;;25.00
14784;BMP180;7483;50.498;12.138;2022-10-31T12:50:47;97595.00;;;24.90
14784;BMP180;7483;50.498;12.138;2022-10-31T12:53:47;97599.00;;;24.70
14784;BMP180;7483;50.498;12.138;2022-10-31T12:56:41;97597.00;;;24.50
14784;BMP180;7483;50.498;12.138;2022-10-31T12:59:20;97412.00;;;24.20
14784;BMP180;7483;50.498;12.138;2022-10-31T13:01:54;97414.00;;;23.90
14784;BMP180;7483;50.498;12.138;2022-10-31T13:04:39;97401.00;;;23.60
14784;BMP180;7483;50.498;12.138;2022-10-31T13:07:14;97406.00;;;23.40
14784;BMP180;7483;50.498;12.138;2022-10-31T13:09:59;97401.00;;;23.10
14784;BMP180;7483;50.498;12.138;2022-10-31T13:12:33;97401.00;;;22.80
14784;BMP180;7483;50.498;12.138;2022-10-31T13:15:14;97399.00;;;22.60
14784;BMP180;7483;50.498;12.138;2022-10-31T13:17:48;97395.00;;;22.30
14784;BMP180;7483;50.498;12.138;2022-10-31T13:20:24;97406.00;;;22.10
14784;BMP180;7483;50.498;12.138;2022-10-31T13:23:09;97387.00;;;21.80
14784;BMP180;7483;50.498;12.138;2022-10-31T13:26:12;97394.00;;;21.50
14784;BMP180;7483;50.498;12.138;2022-10-31T13:28:47;97397.00;;;21.40
14784;BMP180;7483;50.498;12.138;2022-10-31T13:31:22;97401.00;;;21.20
14784;BMP180;7483;50.498;12.138;2022-10-31T13:33:55;97399.00;;;21.00
14784;BMP180;7483;50.498;12.138;2022-10-31T13:36:32;97406.00;;;20.80
14784;BMP180;7483;50.498;12.138;2022-10-31T13:39:18;97398.00;;;20.60
14784;BMP180;7483;50.498;12.138;2022-10-31T13:41:55;97394.00;;;20.40
14784;BMP180;7483;50.498;12.138;2022-10-31T13:44:28;97395.00;;;20.20
14784;BMP180;7483;50.498;12.138;2022-10-31T13:47:24;97413.00;;;20.10
14784;BMP180;7483;50.498;12.138;2022-10-31T13:50:14;97389.00;;;20.00
14784;BMP180;7483;50.498;12.138;2022-10-31T13:52:46;97391.00;;;19.90
14784;BMP180;7483;50.498;12.138;2022-10-31T13:55:37;97395.00;;;19.80
14784;BMP180;7483;50.498;12.138;2022-10-31T13:58:23;97392.00;;;19.70
14784;BMP180;7483;50.498;12.138;2022-10-31T14:01:13;97356.00;;;19.60
14784;BMP180;7483;50.498;12.138;2022-10-31T14:03:56;97387.00;;;19.50
14784;BMP180;7483;50.498;12.138;2022-10-31T14:06:45;97375.00;;;19.30
14784;BMP180;7483;50.498;12.138;2022-10-31T14:09:22;97370.00;;;19.10
14784;BMP180;7483;50.498;12.138;2022-10-31T14:11:51;97371.00;;;19.00
14784;BMP180;7483;50.498;12.138;2022-10-31T14:14:23;97368.00;;;19.00
14784;BMP180;7483;50.498;12.138;2022-10-31T14:16:57;97365.00;;;18.90
14784;BMP180;7483;50.498;12.138;2022-10-31T14:19:28;97355.00;;;18.90
14784;BMP180;7483;50.498;12.138;2022-10-31T14:21:58;97355.00;;;18.90
14784;BMP180;7483;50.498;12.138;2022-10-31T14:24:36;97353.00;;;18.80
14784;BMP180;7483;50.498;12.138;2022-10-31T14:27:45;97360.00;;;18.80
14784;BMP180;7483;50.498;12.138;2022-10-31T14:30:18;97352.00;;;18.80
14784;BMP180;7483;50.498;12.138;2022-10-31T14:32:52;97347.00;;;18.70
14784;BMP180;7483;50.498;12.138;2022-10-31T14:35:34;97346.00;;;18.60
14784;BMP180;7483;50.498;12.138;2022-10-31T14:38:27;97307.00;;;18.60
14784;BMP180;7483;50.498;12.138;2022-10-31T14:41:36;97315.00;;;18.50
14784;BMP180;7483;50.498;12.138;2022-10-31T14:44:36;97346.00;;;18.40
14784;BMP180;7483;50.498;12.138;2022-10-31T14:47:21;97352.00;;;18.40
14784;BMP180;7483;50.498;12.138;2022-10-31T14:50:23;97341.00;;;18.40
14784;BMP180;7483;50.498;12.138;2022-10-31T14:52:56;97340.00;;;18.30
14784;BMP180;7483;50.498;12.138;2022-10-31T14:55:27;97290.00;;;18.30
14784;BMP180;7483;50.498;12.138;2022-10-31T14:58:00;97324.00;;;18.20
14784;BMP180;7483;50.498;12.138;2022-10-31T15:00:31;97320.00;;;18.30
14784;BMP180;7483;50.498;12.138;2022-10-31T15:03:12;97317.00;;;18.20
14784;BMP180;7483;50.498;12.138;2022-10-31T15:05:51;97282.00;;;18.10
14784;BMP180;7483;50.498;12.138;2022-10-31T15:08:33;97326.00;;;18.10
14784;BMP180;7483;50.498;12.138;2022-10-31T15:11:11;97316.00;;;18.00
14784;BMP180;7483;50.498;12.138;2022-10-31T15:13:45;97307.00;;;18.00
14784;BMP180;7483;50.498;12.138;2022-10-31T15:16:18;97295.00;;;17.90
14784;BMP180;7483;50.498;12.138;2022-10-31T15:18:59;97297.00;;;17.80